createdAt,value
2018-12-17T00:01:41.278Z,17.47
2018-12-17T00:06:25.008Z,15.80
2018-12-17T00:11:08.893Z,17.43
2018-12-17T00:15:52.757Z,15.40
2018-12-17T00:20:36.445Z,15.67
2018-12-17T00:25:20.129Z,15.57
2018-12-17T00:30:04.349Z,14.87
2018-12-17T00:34:47.999Z,15.43
2018-12-17T00:39:31.693Z,13.93
2018-12-17T00:44:15.476Z,17.83
2018-12-17T00:48:59.220Z,16.57
2018-12-17T00:53:42.898Z,18.53
2018-12-17T00:58:26.608Z,19.20
2018-12-17T01:03:10.357Z,16.43
2018-12-17T01:07:54.275Z,16.00
2018-12-17T01:12:38.204Z,15.30
2018-12-17T01:17:21.996Z,15.33
2018-12-17T01:22:06.453Z,15.27
2018-12-17T01:26:50.204Z,14.87
2018-12-17T01:31:34.003Z,14.53
2018-12-17T01:36:17.759Z,15.23
2018-12-17T01:41:01.738Z,14.33
2018-12-17T01:45:45.461Z,14.90
2018-12-17T01:50:29.395Z,15.37
2018-12-17T01:55:13.108Z,15.57
2018-12-17T01:59:56.934Z,14.23
2018-12-17T02:04:40.784Z,15.03
2018-12-17T02:09:24.779Z,14.93
2018-12-17T02:14:08.463Z,15.57
2018-12-17T02:18:52.270Z,16.40
2018-12-17T02:23:36.008Z,14.70
2018-12-17T02:28:20.091Z,15.07
2018-12-17T02:33:03.744Z,12.83
2018-12-17T02:37:47.525Z,13.90
2018-12-17T02:42:31.212Z,13.37
2018-12-17T02:47:14.982Z,13.97
2018-12-17T02:51:58.651Z,13.27
2018-12-17T02:56:42.457Z,12.53
2018-12-17T03:01:26.172Z,13.07
2018-12-17T03:06:09.942Z,12.43
2018-12-17T03:10:53.929Z,11.80
2018-12-17T03:15:37.777Z,12.33
2018-12-17T03:20:21.536Z,12.00
2018-12-17T03:25:05.737Z,11.57
2018-12-17T03:29:49.462Z,11.40
2018-12-17T03:34:33.343Z,10.03
2018-12-17T03:39:17.226Z,10.27
2018-12-17T03:44:00.966Z,10.33
2018-12-17T03:48:44.719Z,10.73
2018-12-17T03:53:28.722Z,10.37
2018-12-17T03:58:12.426Z,9.60
2018-12-17T04:02:56.198Z,10.80
2018-12-17T04:07:39.951Z,9.47
2018-12-17T04:12:23.799Z,8.50
2018-12-17T04:17:07.451Z,8.73
2018-12-17T04:21:52.937Z,8.53
2018-12-17T04:26:36.804Z,8.53
2018-12-17T04:31:20.476Z,7.87
2018-12-17T04:36:04.252Z,7.90
2018-12-17T04:40:48.024Z,7.00
2018-12-17T04:45:31.754Z,7.40
2018-12-17T04:50:15.443Z,7.40
2018-12-17T04:54:59.175Z,7.23
2018-12-17T04:59:43.120Z,7.10
2018-12-17T05:04:26.811Z,6.30
2018-12-17T05:09:10.506Z,7.43
2018-12-17T05:13:54.237Z,7.60
2018-12-17T05:18:37.901Z,6.23
2018-12-17T05:23:21.629Z,7.30
2018-12-17T05:28:05.387Z,6.87
2018-12-17T05:32:49.089Z,7.40
2018-12-17T05:37:33.047Z,6.80
2018-12-17T05:42:16.767Z,7.70
2018-12-17T05:47:02.463Z,7.57
2018-12-17T05:51:47.154Z,7.63
2018-12-17T05:56:30.878Z,8.60
2018-12-17T06:01:14.560Z,8.67
2018-12-17T06:05:58.254Z,9.47
2018-12-17T06:10:42.579Z,10.07
2018-12-17T06:15:26.238Z,9.83
2018-12-17T06:20:10.042Z,9.50
2018-12-17T06:24:53.713Z,10.27
2018-12-17T06:29:37.457Z,10.60
2018-12-17T06:34:21.522Z,10.37
2018-12-17T06:39:07.902Z,8.83
2018-12-17T06:43:51.872Z,9.43
2018-12-17T06:48:35.601Z,9.33
2018-12-17T06:53:19.264Z,8.73
2018-12-17T06:58:03.433Z,9.47
2018-12-17T07:02:47.078Z,9.37
2018-12-17T07:07:30.936Z,9.30
2018-12-17T07:12:14.961Z,9.70
2018-12-17T07:16:58.695Z,10.70
2018-12-17T07:21:42.400Z,8.37
2018-12-17T07:26:26.357Z,9.53
2018-12-17T07:31:10.015Z,8.53
2018-12-17T07:35:53.691Z,9.73
2018-12-17T07:40:37.580Z,8.30
2018-12-17T07:45:21.306Z,8.87
2018-12-17T07:50:05.703Z,9.47
2018-12-17T07:54:49.402Z,8.77
2018-12-17T07:59:33.159Z,8.33
2018-12-17T08:04:16.823Z,8.50
2018-12-17T08:09:00.490Z,9.00
2018-12-17T08:13:44.874Z,8.87
2018-12-17T08:18:28.626Z,9.30
2018-12-17T08:23:12.361Z,8.80
2018-12-17T08:27:56.156Z,8.60
2018-12-17T08:32:39.930Z,9.37
2018-12-17T08:37:23.866Z,8.20
2018-12-17T08:42:07.818Z,9.53
2018-12-17T08:46:51.738Z,9.60
2018-12-17T08:51:35.629Z,9.90
2018-12-17T08:56:19.328Z,9.10
2018-12-17T09:01:21.114Z,9.20
2018-12-17T09:06:15.090Z,9.20
2018-12-17T09:16:09.852Z,9.33
2018-12-17T09:20:53.581Z,9.33
2018-12-17T09:25:37.338Z,9.53
2018-12-17T09:30:21.111Z,9.07
2018-12-17T09:35:05.165Z,8.17
2018-12-17T09:39:48.866Z,8.57
2018-12-17T09:44:32.691Z,8.13
2018-12-17T09:49:16.598Z,9.03
2018-12-17T09:54:00.240Z,7.53
2018-12-17T09:58:44.150Z,7.57
2018-12-17T10:03:27.981Z,8.93
2018-12-17T10:08:11.635Z,7.73
2018-12-17T10:12:55.549Z,7.07
2018-12-17T10:17:39.313Z,6.70
2018-12-17T10:22:22.959Z,7.40
2018-12-17T10:27:06.601Z,6.50
2018-12-17T10:31:50.223Z,6.70
2018-12-17T10:36:34.083Z,6.67
2018-12-17T10:41:17.768Z,7.10
2018-12-17T10:46:01.694Z,6.70
2018-12-17T10:50:45.596Z,6.20
2018-12-17T10:55:29.441Z,6.97
2018-12-17T11:00:17.773Z,5.77
2018-12-17T11:05:07.805Z,6.97
2018-12-17T11:09:51.572Z,5.60
2018-12-17T11:14:35.326Z,5.13
2018-12-17T11:19:18.989Z,17.40
2018-12-17T11:24:15.274Z,17.07
2018-12-17T11:29:04.662Z,13.50
2018-12-17T11:33:49.660Z,18.00
2018-12-17T11:38:34.986Z,16.37
2018-12-17T11:43:28.404Z,15.50
2018-12-17T11:48:18.356Z,14.03
2018-12-17T11:53:12.466Z,12.50
2018-12-17T11:58:09.751Z,8.60
2018-12-17T12:02:59.055Z,4.33
2018-12-17T12:07:50.819Z,3.87
2018-12-17T12:12:40.689Z,3.60
2018-12-17T12:17:41.010Z,3.70
2018-12-17T12:22:32.730Z,4.03
2018-12-17T12:27:18.524Z,4.87
2018-12-17T12:32:03.734Z,4.40
2018-12-17T12:36:53.639Z,4.90
2018-12-17T12:41:47.694Z,6.33
2018-12-17T12:46:41.817Z,5.37
2018-12-17T12:51:32.839Z,5.53
2018-12-17T12:56:20.827Z,6.13
2018-12-17T13:01:07.816Z,5.40
2018-12-17T13:06:02.673Z,5.50
2018-12-17T13:10:49.955Z,4.90
2018-12-17T13:15:45.703Z,5.03
2018-12-17T13:20:39.268Z,4.50
2018-12-17T13:25:40.725Z,4.43
2018-12-17T13:30:27.553Z,5.23
2018-12-17T13:35:15.136Z,4.33
2018-12-17T13:40:10.709Z,4.20
2018-12-17T13:50:29.969Z,4.30
2018-12-17T13:55:11.722Z,4.50
2018-12-17T13:59:55.433Z,5.03
2018-12-17T14:04:45.005Z,4.10
2018-12-17T14:09:34.568Z,3.97
2018-12-17T14:19:29.489Z,4.63
2018-12-17T14:34:53.548Z,4.20
2018-12-17T15:06:01.242Z,6.57
2018-12-17T15:15:56.525Z,7.70
2018-12-17T15:20:40.255Z,6.13
2018-12-17T15:25:23.897Z,6.17
2018-12-17T15:35:03.135Z,5.60
2018-12-17T15:39:47.039Z,5.33
2018-12-17T15:44:30.735Z,4.97
2018-12-17T15:49:14.494Z,5.43
2018-12-17T16:04:19.966Z,6.27
2018-12-17T16:09:04.088Z,5.27
2018-12-17T16:13:47.928Z,5.63
2018-12-17T16:18:31.612Z,5.20
2018-12-17T16:23:15.594Z,4.67
2018-12-17T16:27:59.452Z,5.60
2018-12-17T16:32:43.285Z,5.40
2018-12-17T16:37:27.584Z,5.30
2018-12-17T16:42:11.363Z,4.77
2018-12-17T16:46:55.396Z,4.73
2018-12-17T16:51:40.968Z,4.70
2018-12-17T16:56:24.724Z,4.50
2018-12-17T17:01:08.512Z,4.57
2018-12-17T17:05:53.490Z,4.50
2018-12-17T17:10:42.950Z,5.70
2018-12-17T17:15:27.773Z,4.77
2018-12-17T17:20:11.727Z,5.03
2018-12-17T17:24:55.680Z,4.07
2018-12-17T17:29:39.409Z,4.13
2018-12-17T17:34:23.191Z,4.20
2018-12-17T17:39:08.535Z,4.30
2018-12-17T17:43:52.344Z,4.47
2018-12-17T17:48:36.411Z,4.07
2018-12-17T17:53:20.348Z,4.60
2018-12-17T17:58:04.230Z,5.23
2018-12-17T18:02:48.003Z,4.77
2018-12-17T18:07:31.954Z,5.13
2018-12-17T18:12:15.725Z,4.73
2018-12-17T18:17:05.512Z,4.50
2018-12-17T18:22:02.010Z,4.80
2018-12-17T18:26:55.289Z,4.97
2018-12-17T18:31:38.960Z,4.83
2018-12-17T18:36:22.678Z,4.20
2018-12-17T18:46:13.739Z,4.63
2018-12-17T18:50:57.783Z,5.57
2018-12-17T18:55:50.973Z,4.83
2018-12-17T19:00:35.037Z,4.97
2018-12-17T19:05:18.986Z,6.63
2018-12-17T19:10:03.031Z,6.17
2018-12-17T19:14:46.847Z,6.87
2018-12-17T19:19:30.905Z,6.77
2018-12-17T19:24:14.757Z,6.57
2018-12-17T19:28:58.802Z,6.47
2018-12-17T19:33:43.655Z,6.03
2018-12-17T19:38:27.772Z,6.37
2018-12-17T19:43:11.591Z,6.93
2018-12-17T19:47:55.749Z,6.90
2018-12-17T19:52:39.787Z,6.53
2018-12-17T19:57:23.833Z,7.57
2018-12-17T20:02:07.749Z,7.90
2018-12-17T20:07:01.165Z,8.87
2018-12-17T20:11:45.727Z,7.63
2018-12-17T20:16:29.561Z,8.13
2018-12-17T20:21:13.303Z,8.77
2018-12-17T20:25:57.119Z,8.53
2018-12-17T20:30:40.853Z,8.00
2018-12-17T20:35:24.810Z,8.40
2018-12-17T20:40:09.719Z,8.10
2018-12-17T20:44:53.663Z,8.40
2018-12-17T20:49:37.497Z,9.03
2018-12-17T20:54:21.661Z,8.80
2018-12-17T20:59:05.747Z,8.63
2018-12-17T21:03:49.590Z,8.43
2018-12-17T21:08:33.472Z,8.83
2018-12-17T21:13:17.281Z,8.80
2018-12-17T21:18:01.235Z,8.83
2018-12-17T21:22:45.215Z,7.73
2018-12-17T21:27:29.217Z,7.90
2018-12-17T21:32:13.135Z,7.30
2018-12-17T21:36:57.194Z,8.10
2018-12-17T21:41:42.186Z,7.97
2018-12-17T21:46:26.204Z,7.87
2018-12-17T21:56:20.866Z,6.90
2018-12-17T22:01:04.583Z,7.17
2018-12-17T22:05:48.286Z,7.77
2018-12-17T22:10:34.847Z,7.57
2018-12-17T22:15:18.621Z,7.30
2018-12-17T22:20:02.469Z,8.00
2018-12-17T22:24:46.256Z,8.17
2018-12-17T22:29:30.037Z,7.93
2018-12-17T22:34:13.806Z,7.00
2018-12-17T22:38:57.538Z,7.00
2018-12-17T22:43:41.284Z,7.17
2018-12-17T22:48:24.939Z,7.23
2018-12-17T22:53:08.626Z,6.63
2018-12-17T22:57:52.263Z,7.80
2018-12-17T23:02:35.954Z,7.83
2018-12-17T23:07:19.668Z,6.87
2018-12-17T23:12:14.412Z,6.73
2018-12-17T23:17:09.185Z,7.43
2018-12-17T23:21:53.148Z,7.63
2018-12-17T23:26:36.976Z,7.87
2018-12-17T23:31:21.307Z,7.80
2018-12-17T23:36:05.111Z,7.20
2018-12-17T23:40:49.068Z,7.43
2018-12-17T23:45:32.844Z,7.97
2018-12-17T23:50:16.962Z,7.87
2018-12-17T23:55:00.674Z,7.07
2018-12-17T23:59:44.366Z,8.00
